< Cyclone 197610 1976 Season Cyclone 197612 >
Cyclone 197611 (COLIN)
General InformationTrack Information on Google MapsDetailed Wind Information || ResourceGoogle EarthGE AnimationAtom FeedGeoJSON
Detalied Best Track (Time Zone = UTC)
Year Month Day Hour Lat. Long. Pressure (hPa) Wind (kt) Class Image Chart
1976 2 25 17 -10.2 155.5 1002 25 2 -- --
1976 2 25 23 -10.3 156.4 998 30 2 -- --
1976 2 26 05 -11.3 156.5 994 40 3 -- --
1976 2 26 11 -11.5 155.9 993 40 3 -- --
1976 2 26 17 -11.3 155.4 994 40 3 -- --
1976 2 26 23 -10.6 155.0 994 40 3 -- --
1976 2 27 05 -10.9 154.5 993 40 3 -- --
1976 2 27 08 -11.3 154.4 993 40 3 -- --
1976 2 27 11 -11.6 154.4 990 45 3 -- --
1976 2 27 17 -11.8 154.5 987 50 4 -- --
1976 2 27 23 -12.1 154.5 983 55 4 -- --
1976 2 28 05 -12.7 154.6 979 60 4 -- --
1976 2 28 11 -13.3 154.6 974 65 5 -- --
1976 2 28 17 -14.1 154.7 968 75 5 -- --
1976 2 28 23 -15.1 155.0 964 80 5 -- --
1976 2 29 05 -16.4 155.4 961 85 5 -- --
1976 2 29 11 -17.7 155.7 958 85 5 -- --
1976 2 29 17 -18.9 156.0 956 90 5 -- --
1976 2 29 23 -20.1 156.2 954 90 5 -- --
1976 3 1 05 -21.4 156.4 954 90 5 -- --
1976 3 1 11 -22.4 156.1 954 90 5 -- --
1976 3 1 14 -22.9 155.9 954 90 5 -- --
1976 3 1 17 -23.2 155.7 954 90 5 -- --
1976 3 1 20 -23.6 155.6 954 90 5 -- --
1976 3 1 23 -24.0 155.6 955 90 5 -- --
1976 3 2 05 -24.9 155.7 955 90 5 -- --
1976 3 2 11 -25.8 155.9 957 85 5 -- --
1976 3 2 17 -26.7 156.1 960 85 5 -- --
1976 3 2 23 -27.4 156.4 964 80 5 -- --
1976 3 3 05 -28.2 156.8 968 75 5 -- --
1976 3 3 11 -29.1 157.3 972 70 5 -- --
1976 3 3 17 -30.2 157.8 976 65 5 -- --
1976 3 3 20 -30.8 158.1 979 60 4 -- --
1976 3 3 23 -31.4 158.4 982 55 4 -- --
1976 3 4 02 -32.1 158.6 985 50 4 -- --
1976 3 4 05 -32.7 158.7 988 50 4 -- --
1976 3 4 11 -33.7 158.9 995 40 3 -- --
1976 3 5 00 -35.8 155.0 990 40 3 -- --
< Cyclone 197610 1976 Season Cyclone 197612 >

Help